Time;durP1;ratioP1;P1;durP2;ratioP2;P2;SDS_P1;SDS_P2;PMS_P1;PMS_P2;Temp;Humidity;BMP_temperature;BMP_pressure;BME280_temperature;BME280_humidity;BME280_pressure;Samples;Min_cycle;Max_cycle;Signal;HPM_P1;HPM_P2
2022/03/28 00:00:46;;;;;;;23.15;13.98;;;;;;;4.12;61.06;100596.44;4936201;29;20030;-81
2022/03/28 00:03:11;;;;;;;27.63;14.15;;;;;;;4.12;61.02;100599.00;4935903;29;20441;-82
2022/03/28 00:05:37;;;;;;;23.42;13.70;;;;;;;4.07;60.98;100593.03;4936048;29;20087;-80
2022/03/28 00:08:02;;;;;;;21.42;13.75;;;;;;;4.06;61.09;100594.75;4936982;29;20035;-80
2022/03/28 00:10:28;;;;;;;25.05;13.90;;;;;;;4.04;61.63;100587.88;4937444;29;20023;-79
2022/03/28 00:12:54;;;;;;;25.92;14.05;;;;;;;4.06;61.55;100591.31;4936991;29;20263;-81
2022/03/28 00:15:19;;;;;;;28.48;14.00;;;;;;;4.08;61.29;100599.88;4935768;29;20083;-81
2022/03/28 00:17:45;;;;;;;22.73;12.85;;;;;;;4.04;61.29;100586.16;4937169;29;20511;-80
2022/03/28 00:20:11;;;;;;;24.13;14.32;;;;;;;4.02;61.79;100580.16;4936912;29;20476;-80
2022/03/28 00:22:38;;;;;;;27.65;14.52;;;;;;;4.04;61.69;100585.28;4936000;29;20087;-79
2022/03/28 00:25:05;;;;;;;35.80;15.48;;;;;;;3.99;61.97;100572.44;4935642;29;20042;-79
2022/03/28 00:27:30;;;;;;;29.40;15.55;;;;;;;3.98;62.17;100576.72;4937072;29;20032;-79
2022/03/28 00:29:56;;;;;;;35.63;18.63;;;;;;;3.95;62.20;100574.16;4936807;29;20654;-79
2022/03/28 00:32:21;;;;;;;32.28;18.42;;;;;;;3.92;62.18;100568.19;4936971;29;20651;-80
2022/03/28 00:34:46;;;;;;;46.85;22.27;;;;;;;3.96;61.78;100570.75;4935560;29;20118;-79
2022/03/28 00:37:12;;;;;;;31.20;17.17;;;;;;;3.97;62.62;100574.19;4936630;29;20032;-79
2022/03/28 00:39:37;;;;;;;60.15;27.58;;;;;;;3.87;62.60;100563.03;4935858;29;20024;-79
2022/03/28 00:42:03;;;;;;;41.78;20.65;;;;;;;3.87;62.67;100565.59;4936491;29;20042;-80
2022/03/28 00:44:32;;;;;;;31.52;17.92;;;;;;;3.86;62.69;100557.91;4937013;29;20480;-80
2022/03/28 00:46:59;;;;;;;32.35;17.83;;;;;;;3.87;62.67;100557.88;4935158;29;20071;-80
2022/03/28 00:49:24;;;;;;;29.90;18.38;;;;;;;3.83;63.43;100545.88;4935288;29;20118;-80
2022/03/28 00:51:50;;;;;;;35.22;19.90;;;;;;;3.85;63.30;100559.63;4935071;29;20114;-80
2022/03/28 00:54:16;;;;;;;37.13;20.92;;;;;;;3.78;63.07;100539.03;4967456;28;20031;-80
2022/03/28 00:56:45;;;;;;;44.63;23.85;;;;;;;3.73;63.70;100533.91;4967283;28;20032;-80
2022/03/28 00:59:11;;;;;;;47.55;25.10;;;;;;;3.77;63.64;100534.75;4936324;29;20043;-80
2022/03/28 01:01:36;;;;;;;42.97;23.48;;;;;;;3.73;64.19;100534.75;4936306;29;20123;-80
2022/03/28 01:04:06;;;;;;;43.05;23.40;;;;;;;3.66;64.02;100519.34;4966247;28;20019;-80
2022/03/28 01:06:32;;;;;;;40.60;22.30;;;;;;;3.70;64.38;100521.03;4934098;29;20059;-80
2022/03/28 01:08:57;;;;;;;45.92;25.05;;;;;;;3.59;64.70;100508.22;4966910;28;20479;-80
2022/03/28 01:11:26;;;;;;;42.72;22.17;;;;;;;3.64;64.46;100516.78;4972013;28;20047;-80
2022/03/28 01:13:52;;;;;;;55.97;26.38;;;;;;;3.63;64.53;100521.94;4971963;28;20409;-80
2022/03/28 01:16:18;;;;;;;41.58;21.77;;;;;;;3.59;65.08;100517.66;4971910;28;20142;-80
2022/03/28 01:18:50;;;;;;;42.15;22.73;;;;;;;3.54;65.33;100506.50;4972062;28;20469;-80
2022/03/28 01:21:19;;;;;;;46.80;23.42;;;;;;;3.54;66.00;100509.97;4955610;28;20134;-80
2022/03/28 01:23:45;;;;;;;53.20;27.35;;;;;;;3.50;66.12;100503.09;4972046;28;20030;-80
2022/03/28 01:26:12;;;;;;;76.05;39.97;;;;;;;3.49;65.70;100499.66;4971732;28;20039;-80
2022/03/28 01:28:38;;;;;;;51.22;26.60;;;;;;;3.40;66.25;100489.38;4971795;28;20022;-80
2022/03/28 01:31:03;;;;;;;46.92;25.33;;;;;;;3.46;67.02;100504.84;4971679;28;20434;-80
2022/03/28 01:33:29;;;;;;;50.95;27.25;;;;;;;3.40;67.36;100494.53;4971846;28;20042;-80
2022/03/28 01:35:55;;;;;;;57.83;29.10;;;;;;;3.26;67.41;100478.31;4955301;28;20038;-80
2022/03/28 01:38:21;;;;;;;57.17;30.20;;;;;;;3.40;67.22;100507.41;4971745;28;20387;-81
2022/03/28 01:40:49;;;;;;;61.72;31.48;;;;;;;3.36;67.09;100491.97;4955458;28;20125;-81
2022/03/28 01:43:15;;;;;;;66.05;31.65;;;;;;;3.36;67.73;100502.28;4939296;28;20039;-80
2022/03/28 01:45:41;;;;;;;61.67;31.67;;;;;;;3.21;67.92;100480.03;4971344;28;20209;-81
2022/03/28 01:48:08;;;;;;;59.97;30.63;;;;;;;3.19;67.76;100479.16;4971190;28;20075;-80
2022/03/28 01:50:34;;;;;;;56.72;29.85;;;;;;;3.20;68.06;100486.03;4971466;28;20055;-80
2022/03/28 01:52:59;;;;;;;61.95;31.88;;;;;;;3.12;68.20;100477.47;4955002;28;20027;-80
2022/03/28 01:55:25;;;;;;;53.38;29.02;;;;;;;3.20;68.55;100488.59;4955150;28;20193;-80
2022/03/28 01:57:51;;;;;;;48.42;25.08;;;;;;;3.19;68.69;100479.16;4971537;28;20530;-79
2022/03/28 02:00:19;;;;;;;57.78;29.92;;;;;;;3.09;68.44;100470.63;4971205;28;20077;-79
2022/03/28 02:02:48;;;;;;;57.45;31.00;;;;;;;3.13;67.98;100480.06;4971074;28;20117;-79
2022/03/28 02:05:15;;;;;;;58.05;28.60;;;;;;;3.10;68.64;100471.47;4970893;28;20050;-79
2022/03/28 02:07:44;;;;;;;41.10;24.05;;;;;;;3.03;69.14;100470.63;4971236;28;20597;-79
2022/03/28 02:10:11;;;;;;;45.47;25.30;;;;;;;3.04;68.91;100469.78;4970877;28;20046;-79
2022/03/28 02:12:37;;;;;;;42.95;23.90;;;;;;;2.93;69.00;100454.38;4954975;28;20034;-79
2022/03/28 02:15:05;;;;;;;45.25;26.05;;;;;;;2.98;68.92;100464.66;4954338;28;20129;-79
2022/03/28 02:17:32;;;;;;;49.55;27.70;;;;;;;3.00;69.35;100461.22;4939697;28;20048;-79
2022/03/28 02:19:58;;;;;;;57.50;30.55;;;;;;;2.88;69.08;100444.97;4934859;29;20028;-79
2022/03/28 02:22:23;;;;;;;48.42;26.35;;;;;;;2.87;69.98;100449.25;4934879;29;20023;-79
2022/03/28 02:24:49;;;;;;;47.10;27.13;;;;;;;2.94;69.87;100450.06;4933697;28;20051;-80
2022/03/28 02:27:15;;;;;;;41.53;25.52;;;;;;;2.92;69.83;100450.09;4934855;29;20028;-79
2022/03/28 02:29:40;;;;;;;54.25;27.05;;;;;;;2.89;70.27;100441.53;4965649;28;20396;-79
2022/03/28 02:32:06;;;;;;;49.33;28.48;;;;;;;2.89;70.92;100444.09;4965496;28;20447;-79
2022/03/28 02:34:32;;;;;;;45.83;27.10;;;;;;;2.84;71.31;100426.09;4934898;29;20035;-79
2022/03/28 02:36:57;;;;;;;46.03;26.88;;;;;;;2.78;71.65;100414.94;4933295;28;20024;-79
2022/03/28 02:39:22;;;;;;;48.47;26.60;;;;;;;2.87;72.11;100432.97;4965524;28;20074;-79
2022/03/28 02:41:48;;;;;;;45.25;25.17;;;;;;;2.79;72.13;100429.56;4934693;29;20028;-80
2022/03/28 02:44:14;;;;;;;52.22;28.38;;;;;;;2.78;72.66;100441.53;4934659;29;20039;-79
2022/03/28 02:46:39;;;;;;;47.05;26.35;;;;;;;2.67;72.83;100412.44;4934830;29;20040;-80
2022/03/28 02:49:05;;;;;;;44.42;24.73;;;;;;;2.71;72.88;100419.28;4965228;28;20032;-80
2022/03/28 02:51:30;;;;;;;46.83;26.27;;;;;;;2.56;73.08;100389.28;4933501;29;20363;-80
2022/03/28 02:53:56;;;;;;;46.05;24.75;;;;;;;2.64;74.27;100417.56;4934753;29;20032;-80
2022/03/28 02:56:21;;;;;;;45.90;25.38;;;;;;;2.65;74.85;100425.25;4934379;29;20031;-80
2022/03/28 02:58:47;;;;;;;50.20;24.23;;;;;;;2.62;74.96;100416.72;4965335;28;20047;-80
2022/03/28 03:01:13;;;;;;;45.38;23.90;;;;;;;2.64;75.52;100425.28;4965141;28;20079;-80
2022/03/28 03:03:38;;;;;;;40.00;23.10;;;;;;;2.58;75.87;100418.44;4965322;28;20032;-80
2022/03/28 03:06:04;;;;;;;42.13;22.83;;;;;;;2.54;76.12;100413.31;4965124;28;20500;-80
2022/03/28 03:08:29;;;;;;;41.25;23.27;;;;;;;2.52;76.72;100417.59;4934529;29;20028;-79
2022/03/28 03:10:54;;;;;;;44.47;23.02;;;;;;;2.53;77.48;100421.88;4934829;29;20036;-79
2022/03/28 03:13:20;;;;;;;47.85;24.05;;;;;;;2.47;78.08;100418.44;4964997;28;20055;-79
2022/03/28 03:15:46;;;;;;;42.47;23.40;;;;;;;2.47;78.42;100425.31;4965208;28;20060;-80
2022/03/28 03:18:11;;;;;;;43.42;24.90;;;;;;;2.37;78.67;100400.47;4934326;29;20055;-80
2022/03/28 03:20:37;;;;;;;48.78;26.25;;;;;;;2.37;79.39;100414.19;4965382;28;20530;-79
2022/03/28 03:23:02;;;;;;;48.15;26.15;;;;;;;2.25;79.97;100399.63;4934488;29;20039;-79
2022/03/28 03:25:28;;;;;;;43.75;24.35;;;;;;;2.38;80.23;100427.91;4970141;28;20071;-79
2022/03/28 03:27:53;;;;;;;44.50;23.55;;;;;;;2.41;80.97;100433.91;4970223;28;20039;-79
2022/03/28 03:30:19;;;;;;;44.72;24.15;;;;;;;2.28;80.84;100403.91;4973944;28;20154;-79
2022/03/28 03:32:45;;;;;;;43.55;22.85;;;;;;;2.32;80.61;100418.47;4973950;28;20042;-80
2022/03/28 03:35:11;;;;;;;43.78;23.17;;;;;;;2.44;80.99;100430.44;4957520;28;20042;-79
2022/03/28 03:37:38;;;;;;;46.25;22.48;;;;;;;2.40;81.24;100421.91;4957677;28;20034;-80
2022/03/28 03:40:05;;;;;;;41.72;22.15;;;;;;;2.30;81.86;100396.19;4973693;28;20043;-80
2022/03/28 03:42:31;;;;;;;36.58;21.13;;;;;;;2.42;82.31;100429.59;4973765;28;20026;-79
2022/03/28 03:44:57;;;;;;;41.75;22.40;;;;;;;2.33;82.19;100409.06;4957567;28;20035;-80
2022/03/28 03:47:22;;;;;;;41.30;22.00;;;;;;;2.39;82.37;100425.31;4973675;28;20033;-80
2022/03/28 03:49:48;;;;;;;36.00;22.52;;;;;;;2.31;82.87;100411.59;4957630;28;20061;-81
2022/03/28 03:52:13;;;;;;;36.08;21.25;;;;;;;2.32;83.47;100410.78;4973427;28;20066;-80
2022/03/28 03:54:38;;;;;;;33.50;19.50;;;;;;;2.36;83.84;100427.91;4973693;28;20051;-80
2022/03/28 03:57:04;;;;;;;36.00;20.60;;;;;;;2.29;84.15;100409.91;4939369;29;20039;-80
2022/03/28 03:59:30;;;;;;;40.08;21.35;;;;;;;2.29;84.42;100417.63;4935398;29;20496;-80
2022/03/28 04:01:55;;;;;;;37.13;20.27;;;;;;;2.18;84.00;100399.63;4935002;29;20496;-80
2022/03/28 04:04:21;;;;;;;38.50;21.17;;;;;;;2.19;84.89;100388.47;4934912;29;20305;-80
2022/03/28 04:06:46;;;;;;;37.10;20.92;;;;;;;2.26;85.36;100405.63;4934942;29;20062;-80
2022/03/28 04:09:11;;;;;;;40.10;21.30;;;;;;;2.27;85.69;100406.47;4934756;29;20126;-80
2022/03/28 04:11:37;;;;;;;35.65;20.65;;;;;;;2.29;85.94;100408.19;4934924;29;20046;-80
2022/03/28 04:14:02;;;;;;;34.00;20.40;;;;;;;2.25;85.72;100403.91;4934740;29;20492;-80
2022/03/28 04:16:28;;;;;;;36.17;20.75;;;;;;;2.15;85.19;100386.78;4934896;29;20059;-80
2022/03/28 04:18:53;;;;;;;35.17;19.92;;;;;;;2.22;85.12;100402.19;4919084;29;20110;-79
2022/03/28 04:21:19;;;;;;;36.55;21.08;;;;;;;2.16;85.82;100383.38;4918725;29;20028;-80
2022/03/28 04:23:44;;;;;;;33.10;20.55;;;;;;;2.22;86.35;100394.47;4934963;29;20035;-80
2022/03/28 04:26:09;;;;;;;40.70;19.20;;;;;;;2.24;86.99;100399.63;4918769;29;20131;-79
2022/03/28 04:28:36;;;;;;;30.27;18.50;;;;;;;2.24;86.98;100397.91;4936394;29;20071;-79
2022/03/28 04:31:01;;;;;;;31.38;19.08;;;;;;;2.25;87.10;100397.06;4967939;28;20133;-80
2022/03/28 04:33:26;;;;;;;33.75;19.50;;;;;;;2.12;87.56;100381.66;4936859;29;20473;-81
2022/03/28 04:35:52;;;;;;;33.92;20.95;;;;;;;2.19;87.51;100383.34;4937112;29;20460;-80
2022/03/28 04:38:17;;;;;;;36.50;20.42;;;;;;;2.27;87.75;100404.75;4936639;29;20038;-80
2022/03/28 04:40:43;;;;;;;35.53;19.33;;;;;;;2.27;88.02;100401.34;4936137;29;20040;-80
2022/03/28 04:43:08;;;;;;;35.92;19.65;;;;;;;2.20;88.42;100374.78;4935695;29;20050;-79
2022/03/28 04:45:34;;;;;;;32.50;19.27;;;;;;;2.31;88.15;100398.75;4937036;29;20509;-79
2022/03/28 04:48:01;;;;;;;34.10;20.98;;;;;;;2.25;88.45;100378.22;4967356;28;20535;-79
2022/03/28 04:50:26;;;;;;;37.95;20.60;;;;;;;2.40;88.58;100397.88;4936512;29;20077;-79
2022/03/28 04:52:52;;;;;;;40.70;20.98;;;;;;;2.40;88.41;100391.06;4936993;29;20064;-79
2022/03/28 04:55:17;;;;;;;35.28;19.45;;;;;;;2.28;88.66;100360.22;4967290;28;20035;-79
2022/03/28 04:57:43;;;;;;;38.33;21.08;;;;;;;2.39;88.75;100376.47;4935549;29;20495;-79
2022/03/28 05:00:10;;;;;;;36.72;20.13;;;;;;;2.51;88.72;100378.16;4936771;29;20491;-80
2022/03/28 05:02:36;;;;;;;35.05;21.83;;;;;;;2.47;88.67;100367.03;4936558;29;20031;-79
2022/03/28 05:05:06;;;;;;;37.15;21.67;;;;;;;2.61;88.59;100371.28;4967356;28;20043;-80
2022/03/28 05:07:32;;;;;;;35.10;20.67;;;;;;;2.65;88.72;100360.13;4936338;28;20110;-80
2022/03/28 05:09:59;;;;;;;40.42;21.23;;;;;;;2.78;88.30;100369.50;4967263;28;20032;-80
2022/03/28 05:12:25;;;;;;;35.22;20.00;;;;;;;2.87;88.46;100363.50;4967163;28;20035;-80
2022/03/28 05:14:52;;;;;;;37.78;20.20;;;;;;;2.94;88.34;100358.28;4936396;29;20110;-80
2022/03/28 05:17:22;;;;;;;42.08;21.77;;;;;;;3.15;87.77;100359.06;4966894;28;20130;-79
2022/03/28 05:19:48;;;;;;;41.13;19.77;;;;;;;3.34;87.50;100365.84;4936309;29;20043;-79
2022/03/28 05:22:14;;;;;;;39.55;20.35;;;;;;;3.56;86.76;100363.13;4966672;28;20035;-79
2022/03/28 05:24:39;;;;;;;37.35;20.85;;;;;;;3.84;86.05;100354.34;4966864;28;20028;-80
2022/03/28 05:27:05;;;;;;;36.85;20.88;;;;;;;4.36;84.36;100347.84;4936196;29;20411;-80
2022/03/28 05:29:31;;;;;;;31.80;19.95;;;;;;;4.98;82.46;100341.13;4935875;29;20027;-79
2022/03/28 05:31:56;;;;;;;36.05;19.42;;;;;;;5.76;79.37;100343.44;4966975;28;20126;-80
2022/03/28 05:34:21;;;;;;;35.17;19.55;;;;;;;6.69;76.29;100337.50;4934544;29;20071;-79
2022/03/28 05:36:47;;;;;;;34.47;18.70;;;;;;;8.29;70.47;100330.38;4936027;29;20123;-80
2022/03/28 05:39:13;;;;;;;33.05;18.85;;;;;;;9.68;63.35;100322.88;4966480;28;20031;-80
2022/03/28 05:41:38;;;;;;;31.88;20.15;;;;;;;10.01;59.98;100326.13;4966869;28;20078;-80
2022/03/28 05:44:04;;;;;;;25.55;16.70;;;;;;;10.13;60.04;100325.72;4966648;28;20055;-80
2022/03/28 05:46:30;;;;;;;26.90;15.23;;;;;;;10.28;57.96;100315.69;4966348;28;20034;-80
2022/03/28 05:48:55;;;;;;;21.75;14.32;;;;;;;10.72;56.47;100321.94;4935595;29;20031;-80
2022/03/28 05:51:21;;;;;;;20.42;15.00;;;;;;;11.84;53.99;100328.94;4935009;29;20023;-81
2022/03/28 05:53:46;;;;;;;19.08;14.15;;;;;;;13.36;48.36;100303.97;4965764;28;20026;-80
2022/03/28 05:56:12;;;;;;;21.90;15.38;;;;;;;13.77;45.94;100293.25;4935809;29;20090;-81
2022/03/28 05:58:38;;;;;;;24.80;16.63;;;;;;;13.58;45.64;100315.09;4966532;28;20035;-80
2022/03/28 06:01:03;;;;;;;24.45;15.52;;;;;;;13.55;46.07;100315.22;4935366;29;20028;-80
2022/03/28 06:03:29;;;;;;;22.85;16.55;;;;;;;13.67;45.43;100316.41;4965727;28;20039;-80
2022/03/28 06:05:55;;;;;;;22.77;16.83;;;;;;;14.54;43.77;100313.78;4935614;29;20032;-80
2022/03/28 06:08:21;;;;;;;23.20;16.40;;;;;;;16.07;39.89;100307.94;4965731;28;20123;-80
2022/03/28 06:10:47;;;;;;;22.40;16.40;;;;;;;16.23;38.51;100302.63;4935541;29;20031;-79
2022/03/28 06:13:13;;;;;;;23.55;17.52;;;;;;;15.76;39.36;100314.13;4935240;29;20107;-80
2022/03/28 06:15:38;;;;;;;22.73;16.25;;;;;;;15.55;39.77;100310.91;4935169;29;20500;-80
2022/03/28 06:18:04;;;;;;;24.88;16.45;;;;;;;15.68;39.75;100293.56;4935504;29;20559;-80
2022/03/28 06:20:31;;;;;;;25.55;15.88;;;;;;;17.29;36.81;100310.13;4965611;28;20063;-83
2022/03/28 06:22:56;;;;;;;24.98;16.60;;;;;;;18.22;33.93;100292.59;4933677;29;20034;-81
2022/03/28 06:25:22;;;;;;;23.58;15.50;;;;;;;17.37;35.03;100284.16;4965781;28;20028;-78
2022/03/28 06:27:48;;;;;;;20.75;14.98;;;;;;;16.60;36.09;100283.69;4965799;28;20686;-78
2022/03/28 06:30:13;;;;;;;23.20;14.15;;;;;;;16.43;36.86;100299.63;4934902;29;20084;-78
2022/03/28 06:32:40;;;;;;;21.20;14.68;;;;;;;17.51;35.54;100288.50;4965817;28;20384;-78
2022/03/28 06:35:07;;;;;;;19.48;14.40;;;;;;;18.38;33.36;100285.34;4934970;29;20645;-78
2022/03/28 06:37:34;;;;;;;18.83;14.38;;;;;;;17.87;33.83;100274.75;4934598;29;20155;-78
2022/03/28 06:39:59;;;;;;;19.15;14.38;;;;;;;17.50;34.50;100290.31;4935102;29;20047;-77
2022/03/28 06:42:25;;;;;;;19.38;14.30;;;;;;;17.76;34.95;100285.97;4934808;29;20028;-78
2022/03/28 06:44:51;;;;;;;20.95;14.25;;;;;;;19.42;31.68;100270.00;4934985;29;20062;-77
2022/03/28 06:47:16;;;;;;;26.13;16.63;;;;;;;19.24;31.52;100263.44;4934476;29;20476;-76
2022/03/28 06:49:42;;;;;;;23.70;15.70;;;;;;;18.62;32.61;100285.41;4934914;29;20036;-77
2022/03/28 06:52:09;;;;;;;18.45;14.18;;;;;;;18.34;33.39;100282.06;4935049;29;20028;-77
2022/03/28 06:54:35;;;;;;;19.33;13.90;;;;;;;19.65;31.62;100257.78;4934752;29;20107;-77
2022/03/28 06:57:02;;;;;;;18.92;14.18;;;;;;;20.66;29.72;100272.03;4934953;29;20075;-77
2022/03/28 06:59:29;;;;;;;23.27;16.65;;;;;;;19.95;30.28;100244.03;4934533;29;20032;-77
2022/03/28 07:01:56;;;;;;;22.48;15.10;;;;;;;19.67;31.30;100274.34;4934579;29;20023;-77
2022/03/28 07:04:22;;;;;;;20.40;14.98;;;;;;;20.95;29.75;100249.50;4967670;28;20139;-77
2022/03/28 07:06:48;;;;;;;19.45;14.48;;;;;;;21.65;28.61;100254.34;4938732;29;20102;-77
2022/03/28 07:09:14;;;;;;;18.67;13.70;;;;;;;22.18;28.42;100259.66;4938520;29;20091;-77
2022/03/28 07:11:39;;;;;;;18.55;12.80;;;;;;;24.25;25.83;100249.06;4938655;29;20480;-78
2022/03/28 07:14:05;;;;;;;19.38;13.95;;;;;;;25.13;24.27;100248.56;4937291;29;20027;-77
2022/03/28 07:16:30;;;;;;;18.15;13.65;;;;;;;24.32;24.34;100243.03;4938123;29;20492;-76
2022/03/28 07:18:56;;;;;;;16.77;13.75;;;;;;;24.19;25.47;100253.16;4938325;29;20031;-77
2022/03/28 07:21:22;;;;;;;19.45;13.57;;;;;;;26.38;23.80;100248.41;4938449;29;20035;-79
2022/03/28 07:23:48;;;;;;;16.42;11.75;;;;;;;28.97;20.93;100252.38;4938519;29;20027;-79
2022/03/28 07:26:14;;;;;;;16.42;12.38;;;;;;;31.02;18.88;100233.31;4936946;28;20094;-79
2022/03/28 07:28:40;;;;;;;17.40;12.48;;;;;;;32.76;17.19;100237.16;4938216;29;20034;-79
2022/03/28 07:31:09;;;;;;;14.18;11.45;;;;;;;33.96;16.24;100249.06;4938024;29;20032;-80
2022/03/28 07:33:44;;;;;;;14.00;12.18;;;;;;;34.92;15.02;100242.09;4937870;29;20032;-80
2022/03/28 07:36:10;;;;;;;16.30;12.63;;;;;;;35.22;14.87;100235.06;4936752;29;20028;-80
2022/03/28 07:38:37;;;;;;;16.08;11.65;;;;;;;35.71;14.59;100232.66;4936649;28;20487;-81
2022/03/28 07:41:03;;;;;;;14.63;11.32;;;;;;;36.07;13.90;100228.38;4936806;29;20039;-81
2022/03/28 07:43:29;;;;;;;13.20;10.90;;;;;;;36.53;13.99;100230.59;4936437;29;20019;-82
2022/03/28 07:45:54;;;;;;;12.05;10.77;;;;;;;36.64;13.85;100227.13;4936647;29;20051;-81
2022/03/28 07:48:23;;;;;;;14.02;10.93;;;;;;;36.95;13.64;100223.38;4937497;29;20118;-81
2022/03/28 07:50:49;;;;;;;14.63;11.75;;;;;;;37.03;13.33;100226.84;4936723;29;20416;-82
2022/03/28 07:53:15;;;;;;;15.95;11.60;;;;;;;36.78;13.49;100205.22;4937700;29;20062;-82
2022/03/28 07:55:42;;;;;;;15.02;11.65;;;;;;;35.58;14.35;100208.41;4936619;29;20067;-82
2022/03/28 07:58:09;;;;;;;15.73;12.40;;;;;;;31.96;16.36;100183.84;4936079;29;20528;-81
2022/03/28 08:00:35;;;;;;;14.93;10.95;;;;;;;28.96;19.28;100213.16;4937160;29;20043;-81
2022/03/28 08:03:01;;;;;;;14.10;12.38;;;;;;;26.47;21.93;100190.56;4968621;28;20452;-82
2022/03/28 08:05:28;;;;;;;17.45;12.75;;;;;;;24.73;24.03;100190.28;4968673;28;20126;-82
2022/03/28 08:07:53;;;;;;;12.82;10.68;;;;;;;23.61;25.46;100194.72;4973471;28;20142;-82
2022/03/28 08:10:20;;;;;;;14.15;10.80;;;;;;;22.51;27.07;100192.19;4973605;28;20113;-82
2022/03/28 08:12:47;;;;;;;14.20;11.57;;;;;;;21.57;29.34;100180.78;4973505;28;20050;-82
2022/03/28 08:15:15;;;;;;;14.13;10.50;;;;;;;20.96;31.08;100183.19;4955907;28;20050;-83
2022/03/28 08:17:41;;;;;;;11.05;9.60;;;;;;;20.39;32.07;100181.53;4973403;28;20101;-83
2022/03/28 08:20:09;;;;;;;15.00;10.75;;;;;;;19.99;32.90;100174.09;4973501;28;20503;-82
2022/03/28 08:22:36;;;;;;;13.38;9.68;;;;;;;19.57;33.85;100171.09;4956838;28;20042;-83
2022/03/28 08:25:01;;;;;;;11.18;9.15;;;;;;;19.28;34.63;100160.09;4973173;28;20438;-83
2022/03/28 08:27:27;;;;;;;13.32;10.27;;;;;;;18.91;35.33;100143.50;4972755;28;20035;-82
2022/03/28 08:29:52;;;;;;;13.23;10.38;;;;;;;18.77;36.15;100159.50;4973156;28;20073;-81
2022/03/28 08:32:18;;;;;;;14.75;10.10;;;;;;;18.44;37.58;100148.56;4972754;28;20065;-81
2022/03/28 08:34:46;;;;;;;13.52;10.57;;;;;;;18.17;38.07;100155.81;4956975;28;20035;-81
2022/03/28 08:37:16;;;;;;;13.23;9.57;;;;;;;18.00;38.36;100159.63;4973121;28;20046;-82
2022/03/28 08:39:42;;;;;;;16.67;11.05;;;;;;;17.80;39.35;100145.19;4941626;28;20039;-83
2022/03/28 08:42:09;;;;;;;14.13;10.57;;;;;;;17.60;39.96;100143.03;4967674;28;20357;-83
2022/03/28 08:44:37;;;;;;;12.48;10.10;;;;;;;17.46;39.88;100154.50;4967303;28;20047;-81
2022/03/28 08:47:03;;;;;;;14.77;11.30;;;;;;;17.35;40.26;100146.47;4937156;29;20038;-82
2022/03/28 08:49:29;;;;;;;13.82;10.38;;;;;;;17.26;40.83;100141.81;4936678;29;20027;-83
2022/03/28 08:51:55;;;;;;;14.50;10.93;;;;;;;17.12;41.08;100127.78;4936760;29;20479;-83
2022/03/28 08:54:20;;;;;;;13.55;10.48;;;;;;;17.07;41.40;100122.00;4936544;29;20024;-83
2022/03/28 08:56:47;;;;;;;13.77;10.27;;;;;;;17.08;41.48;100131.56;4967415;28;20038;-83
2022/03/28 08:59:13;;;;;;;16.27;11.02;;;;;;;17.04;42.01;100137.97;4936467;29;20476;-83
2022/03/28 09:01:39;;;;;;;13.65;10.60;;;;;;;17.04;42.16;100130.09;4967193;28;20179;-80
2022/03/28 09:04:09;;;;;;;14.02;11.40;;;;;;;16.97;41.91;100110.38;4936652;29;20479;-81
2022/03/28 09:06:37;;;;;;;15.77;10.82;;;;;;;16.97;42.29;100110.38;4936408;29;20031;-81
2022/03/28 09:09:23;;;;;;;14.20;10.07;;;;;;;16.92;42.40;100113.31;4967168;28;20119;-81
2022/03/28 09:11:57;;;;;;;16.40;11.02;;;;;;;16.94;42.70;100114.06;4936661;29;20078;-82
2022/03/28 09:14:35;;;;;;;14.60;10.05;;;;;;;16.83;42.75;100090.25;4936113;29;20648;-81
2022/03/28 09:17:05;;;;;;;16.63;10.65;;;;;;;16.97;42.37;100105.09;4936522;29;20032;-82
2022/03/28 09:19:53;;;;;;;12.95;10.57;;;;;;;16.93;42.59;100101.84;4966881;28;20051;-82
2022/03/28 09:22:24;;;;;;;15.55;11.00;;;;;;;16.92;42.57;100107.22;4936275;29;20468;-81
2022/03/28 09:24:52;;;;;;;14.10;10.57;;;;;;;16.84;43.48;100094.53;4936552;29;20031;-80
2022/03/28 09:27:22;;;;;;;16.58;12.05;;;;;;;16.84;43.08;100093.72;4935978;29;20531;-80
2022/03/28 09:30:02;;;;;;;14.73;11.67;;;;;;;16.76;43.10;100086.31;4936156;29;20476;-80
2022/03/28 09:32:33;;;;;;;13.93;10.40;;;;;;;16.71;43.23;100064.69;4934434;28;20036;-80
2022/03/28 09:35:22;;;;;;;13.27;10.55;;;;;;;16.88;43.03;100080.25;4966914;28;20042;-80
2022/03/28 09:38:05;;;;;;;13.43;10.73;;;;;;;16.76;43.00;100052.13;4967073;28;20440;-80
2022/03/28 09:40:45;;;;;;;13.85;10.43;;;;;;;16.90;42.57;100077.53;4935634;29;20484;-80
2022/03/28 09:43:20;;;;;;;13.50;9.80;;;;;;;16.94;42.47;100081.66;4936321;29;20107;-81
2022/03/28 09:45:50;;;;;;;12.15;10.32;;;;;;;16.95;42.20;100081.53;4935642;29;20095;-81
2022/03/28 09:48:16;;;;;;;16.35;11.20;;;;;;;16.92;42.78;100078.25;4966477;28;20028;-80
2022/03/28 09:50:48;;;;;;;13.88;10.45;;;;;;;16.96;42.81;100077.97;4935814;29;20473;-80
2022/03/28 09:53:25;;;;;;;15.00;10.77;;;;;;;16.85;42.42;100051.50;4935584;29;20114;-80
2022/03/28 09:55:55;;;;;;;13.52;10.82;;;;;;;16.91;42.64;100050.28;4934544;29;20455;-80
2022/03/28 09:58:59;;;;;;;12.23;10.35;;;;;;;16.98;42.29;100066.47;4935710;29;20032;-81
2022/03/28 10:01:25;;;;;;;13.43;10.50;;;;;;;16.97;42.50;100060.38;4933866;28;20036;-83
2022/03/28 10:03:52;;;;;;;16.17;11.75;;;;;;;16.94;43.14;100047.44;4935286;29;20024;-82
2022/03/28 10:06:19;;;;;;;13.23;11.82;;;;;;;16.98;43.21;100048.06;4966350;28;20119;-81
2022/03/28 10:08:45;;;;;;;13.07;10.95;;;;;;;17.00;42.86;100041.75;4935100;29;20032;-82
2022/03/28 10:11:11;;;;;;;14.07;10.30;;;;;;;16.94;42.77;100021.13;4966247;28;20460;-80
2022/03/28 10:13:38;;;;;;;13.77;11.20;;;;;;;17.09;43.60;100030.59;4965844;28;20535;-80
2022/03/28 10:16:04;;;;;;;14.25;10.90;;;;;;;17.13;43.13;100024.19;4935474;29;20076;-80
2022/03/28 10:18:32;;;;;;;12.35;10.65;;;;;;;17.21;43.10;100021.03;4935219;29;20060;-80
2022/03/28 10:21:01;;;;;;;13.77;11.10;;;;;;;17.33;42.77;100022.84;4935356;29;20036;-81
2022/03/28 10:23:33;;;;;;;14.88;11.15;;;;;;;17.34;42.91;100023.69;4934919;29;20078;-80
2022/03/28 10:25:59;;;;;;;16.58;11.25;;;;;;;17.29;42.71;100010.84;4933911;29;20543;-80
2022/03/28 10:28:25;;;;;;;12.98;11.13;;;;;;;17.28;43.08;99997.78;4965465;28;20024;-80
2022/03/28 10:31:07;;;;;;;14.50;10.50;;;;;;;17.32;42.66;100008.00;4965754;28;20027;-80
2022/03/28 10:33:33;;;;;;;11.30;9.80;;;;;;;17.40;42.05;100007.44;4933803;29;20495;-80
2022/03/28 10:36:02;;;;;;;17.40;11.48;;;;;;;17.35;41.93;99997.22;4935232;29;20181;-80
2022/03/28 10:38:27;;;;;;;16.10;10.13;;;;;;;17.41;41.75;100003.88;4934060;28;20087;-80
2022/03/28 10:41:15;;;;;;;15.27;10.40;;;;;;;17.34;41.39;99986.81;4934867;29;20039;-80
2022/03/28 10:43:42;;;;;;;11.30;8.73;;;;;;;17.44;41.12;99995.75;4934972;29;20055;-80
2022/03/28 10:46:09;;;;;;;13.25;9.73;;;;;;;17.36;41.26;99969.13;4934940;29;20027;-80
2022/03/28 10:48:58;;;;;;;10.98;9.70;;;;;;;17.41;41.12;99974.94;4933257;29;20020;-82
2022/03/28 10:51:29;;;;;;;15.10;9.80;;;;;;;17.40;41.37;99968.81;4934497;29;20510;-81
2022/03/28 10:53:58;;;;;;;12.02;9.13;;;;;;;17.49;41.33;99963.81;4933591;29;20020;-80
2022/03/28 10:56:31;;;;;;;12.32;9.18;;;;;;;17.55;41.41;99966.06;4934826;29;20035;-81
2022/03/28 10:59:01;;;;;;;14.30;10.00;;;;;;;17.58;41.03;99958.78;4934796;29;20024;-80
2022/03/28 11:01:41;;;;;;;12.30;9.30;;;;;;;17.57;41.57;99943.94;4934386;29;20032;-80
2022/03/28 11:04:16;;;;;;;12.23;9.10;;;;;;;17.70;41.85;99959.72;4934563;29;20275;-81
2022/03/28 11:07:07;;;;;;;15.02;9.73;;;;;;;17.62;41.20;99919.91;4934537;29;20059;-80
2022/03/28 11:09:49;;;;;;;13.57;9.05;;;;;;;17.68;41.13;99930.81;4965323;28;20054;-80
2022/03/28 11:12:27;;;;;;;11.05;8.20;;;;;;;17.80;41.06;99938.84;4965343;28;20039;-80
2022/03/28 11:14:52;;;;;;;13.57;10.48;;;;;;;17.82;41.08;99944.81;4934206;29;20500;-80